Sns 251 — FN6543 — position and weather

sailwx.info

Track history (hours):
 
Tides and Currents Weather Stations Pressure Air Temp Water Temp Dewpoint Dewpoint Depression Visibility Wind Speed Wind Dir Waves Ship Positions

Sns 251

Last reported at 2014-Sep-01 02:27 UTC. Time now 2014-Sep-03 00:01 UTC.
Position N 43°07' E 006°23'.

Length 10 m.

Type: Pilot. MMSI: 227002730.

Date/timePositionNaut miles runAvg speedWind from/ knotsBaromVisibWave heightAir tempDewpointWater temp
2014-Sep-01 02:27N 43°07' E 006°23'7 7.3
2014-Sep-01 01:33N 43°00' E 006°23'0 0.0
2014-Sep-01 00:33N 43°00' E 006°23'7 0.2
2014-Aug-30 11:22N 43°07' E 006°23'5 5.7
2014-Aug-30 10:33N 43°03' E 006°25'  
2014-Aug-24 20:23N 43°07' E 006°23'2 2.2
2014-Aug-24 19:33N 43°06' E 006°25'0 0.3
2014-Aug-24 18:34N 43°06' E 006°25'2 0.0
2014-Aug-23 02:26N 43°07' E 006°23'1 1.5
2014-Aug-23 01:33N 43°06' E 006°23'1 0.6
2014-Aug-22 23:13N 43°07' E 006°23'710.3
2014-Aug-22 22:33N 43°01' E 006°26'0 0.0
2014-Aug-22 21:33N 43°01' E 006°26'0 0.0
2014-Aug-22 20:33N 43°01' E 006°26'0 0.0
2014-Aug-22 19:33N 43°01' E 006°26'0 0.0
2014-Aug-22 18:33N 43°01' E 006°26'0 0.0
2014-Aug-22 17:33N 43°01' E 006°26'5 4.8
2014-Aug-22 16:33N 43°05' E 006°23'  
Track history (hours):
 
Tides and Currents Weather Stations Pressure Air Temp Water Temp Dewpoint Dewpoint Depression Visibility Wind Speed Wind Dir Waves Ship Positions

Sns 251

Last reported at 2014-Sep-01 02:27 UTC. Time now 2014-Sep-03 00:01 UTC.
Position N 43°07' E 006°23'.

Length 10 m.

Type: Pilot. MMSI: 227002730.

Date/timePositionNaut miles runAvg speedWind from/ knotsBaromVisibWave heightAir tempDewpointWater temp
2014-Sep-01 02:27N 43°07' E 006°23'7 7.3
2014-Sep-01 01:33N 43°00' E 006°23'0 0.0
2014-Sep-01 00:33N 43°00' E 006°23'7 0.2
2014-Aug-30 11:22N 43°07' E 006°23'5 5.7
2014-Aug-30 10:33N 43°03' E 006°25'  
2014-Aug-24 20:23N 43°07' E 006°23'2 2.2
2014-Aug-24 19:33N 43°06' E 006°25'0 0.3
2014-Aug-24 18:34N 43°06' E 006°25'2 0.0
2014-Aug-23 02:26N 43°07' E 006°23'1 1.5
2014-Aug-23 01:33N 43°06' E 006°23'1 0.6
2014-Aug-22 23:13N 43°07' E 006°23'710.3
2014-Aug-22 22:33N 43°01' E 006°26'0 0.0
2014-Aug-22 21:33N 43°01' E 006°26'0 0.0
2014-Aug-22 20:33N 43°01' E 006°26'0 0.0
2014-Aug-22 19:33N 43°01' E 006°26'0 0.0
2014-Aug-22 18:33N 43°01' E 006°26'0 0.0
2014-Aug-22 17:33N 43°01' E 006°26'5 4.8
2014-Aug-22 16:33N 43°05' E 006°23'  

Dump ship's entire track history